sensor_id;sensor_type;location;lat;lon;timestamp;pressure;altitude;pressure_sealevel;temperature;humidity
48622;BME280;34421;48.944;9.460;2023-04-05T00:01:31;99111.41;;;2.25;53.61
48622;BME280;34421;48.944;9.460;2023-04-05T00:03:57;99108.66;;;2.26;53.75
48622;BME280;34421;48.944;9.460;2023-04-05T00:06:24;99105.47;;;2.23;53.81
48622;BME280;34421;48.944;9.460;2023-04-05T00:11:21;99098.56;;;2.22;54.01
48622;BME280;34421;48.944;9.460;2023-04-05T00:13:46;99102.00;;;2.22;54.09
48622;BME280;34421;48.944;9.460;2023-04-05T00:16:12;99101.47;;;2.19;53.93
48622;BME280;34421;48.944;9.460;2023-04-05T00:18:37;99099.13;;;2.16;54.22
48622;BME280;34421;48.944;9.460;2023-04-05T00:21:03;99095.81;;;2.14;53.88
48622;BME280;34421;48.944;9.460;2023-04-05T00:23:29;99090.72;;;2.12;54.51
48622;BME280;34421;48.944;9.460;2023-04-05T00:26:01;99089.03;;;2.11;53.84
48622;BME280;34421;48.944;9.460;2023-04-05T00:28:26;99084.47;;;2.13;53.71
48622;BME280;34421;48.944;9.460;2023-04-05T00:30:51;99083.78;;;2.11;53.85
48622;BME280;34421;48.944;9.460;2023-04-05T00:33:17;99076.06;;;2.10;53.96
48622;BME280;34421;48.944;9.460;2023-04-05T00:35:42;99075.34;;;2.08;54.10
48622;BME280;34421;48.944;9.460;2023-04-05T00:38:07;99070.09;;;2.08;54.13
48622;BME280;34421;48.944;9.460;2023-04-05T00:40:32;99069.44;;;2.05;54.38
48622;BME280;34421;48.944;9.460;2023-04-05T00:42:57;99063.78;;;2.00;54.57
48622;BME280;34421;48.944;9.460;2023-04-05T00:45:23;99061.13;;;2.00;54.52
48622;BME280;34421;48.944;9.460;2023-04-05T00:47:48;99055.06;;;2.00;54.84
48622;BME280;34421;48.944;9.460;2023-04-05T00:50:14;99062.13;;;1.99;54.97
48622;BME280;34421;48.944;9.460;2023-04-05T00:52:40;99053.38;;;1.99;54.83
48622;BME280;34421;48.944;9.460;2023-04-05T00:55:05;99058.91;;;1.96;54.68
48622;BME280;34421;48.944;9.460;2023-04-05T00:57:31;99055.47;;;1.95;54.71
48622;BME280;34421;48.944;9.460;2023-04-05T00:59:58;99056.59;;;1.93;54.25
48622;BME280;34421;48.944;9.460;2023-04-05T01:02:27;99056.47;;;1.94;53.93
48622;BME280;34421;48.944;9.460;2023-04-05T01:05:02;99046.50;;;1.98;53.46
48622;BME280;34421;48.944;9.460;2023-04-05T01:07:37;99049.38;;;2.04;53.04
48622;BME280;34421;48.944;9.460;2023-04-05T01:10:06;99044.38;;;2.11;52.36
48622;BME280;34421;48.944;9.460;2023-04-05T01:12:33;99037.06;;;2.15;52.22
48622;BME280;34421;48.944;9.460;2023-04-05T01:15:00;99033.44;;;2.16;52.22
48622;BME280;34421;48.944;9.460;2023-04-05T01:17:26;99041.19;;;2.17;52.12
48622;BME280;34421;48.944;9.460;2023-04-05T01:19:53;99037.44;;;2.20;51.87
48622;BME280;34421;48.944;9.460;2023-04-05T01:28:04;99033.44;;;2.16;51.81
48622;BME280;34421;48.944;9.460;2023-04-05T01:31:25;99013.69;;;2.12;52.35
48622;BME280;34421;48.944;9.460;2023-04-05T01:35:52;99022.16;;;2.05;52.74
48622;BME280;34421;48.944;9.460;2023-04-05T01:38:21;99016.34;;;2.02;52.90
48622;BME280;34421;48.944;9.460;2023-04-05T01:40:49;99017.75;;;1.96;53.59
48622;BME280;34421;48.944;9.460;2023-04-05T01:43:15;99011.94;;;1.93;53.57
48622;BME280;34421;48.944;9.460;2023-04-05T01:45:40;99017.47;;;1.90;54.13
48622;BME280;34421;48.944;9.460;2023-04-05T01:48:06;99017.75;;;1.87;54.13
48622;BME280;34421;48.944;9.460;2023-04-05T01:50:31;99023.81;;;1.87;53.79
48622;BME280;34421;48.944;9.460;2023-04-05T01:52:56;99015.94;;;1.87;54.13
48622;BME280;34421;48.944;9.460;2023-04-05T01:55:22;99017.09;;;1.85;54.07
48622;BME280;34421;48.944;9.460;2023-04-05T01:57:47;99019.16;;;1.81;54.39
48622;BME280;34421;48.944;9.460;2023-04-05T02:00:12;99014.34;;;1.76;54.13
48622;BME280;34421;48.944;9.460;2023-04-05T02:02:37;99015.56;;;1.72;54.19
48622;BME280;34421;48.944;9.460;2023-04-05T02:05:03;99011.72;;;1.67;54.51
48622;BME280;34421;48.944;9.460;2023-04-05T02:07:28;99010.34;;;1.63;54.83
48622;BME280;34421;48.944;9.460;2023-04-05T02:09:53;99010.91;;;1.56;55.08
48622;BME280;34421;48.944;9.460;2023-04-05T02:12:18;98998.06;;;1.53;55.07
48622;BME280;34421;48.944;9.460;2023-04-05T02:14:43;99011.44;;;1.50;55.03
48622;BME280;34421;48.944;9.460;2023-04-05T02:17:09;99010.63;;;1.50;55.52
48622;BME280;34421;48.944;9.460;2023-04-05T02:19:34;99009.00;;;1.49;56.02
48622;BME280;34421;48.944;9.460;2023-04-05T02:22:01;99009.38;;;1.44;55.48
48622;BME280;34421;48.944;9.460;2023-04-05T02:24:26;99000.16;;;1.40;55.51
48622;BME280;34421;48.944;9.460;2023-04-05T02:26:51;99004.69;;;1.38;56.10
48622;BME280;34421;48.944;9.460;2023-04-05T02:29:16;99003.06;;;1.37;55.73
48622;BME280;34421;48.944;9.460;2023-04-05T02:31:42;99002.63;;;1.32;55.68
48622;BME280;34421;48.944;9.460;2023-04-05T02:34:07;99004.00;;;1.26;55.95
48622;BME280;34421;48.944;9.460;2023-04-05T02:36:35;98995.72;;;1.21;56.71
48622;BME280;34421;48.944;9.460;2023-04-05T02:39:01;98989.91;;;1.18;57.17
48622;BME280;34421;48.944;9.460;2023-04-05T02:41:26;98995.16;;;1.18;56.65
48622;BME280;34421;48.944;9.460;2023-04-05T02:43:51;98984.81;;;1.16;56.83
48622;BME280;34421;48.944;9.460;2023-04-05T02:46:16;98984.94;;;1.14;57.24
48622;BME280;34421;48.944;9.460;2023-04-05T02:48:41;98987.97;;;1.10;57.31
48622;BME280;34421;48.944;9.460;2023-04-05T02:51:07;98989.91;;;1.08;57.20
48622;BME280;34421;48.944;9.460;2023-04-05T02:53:33;98989.38;;;1.04;57.03
48622;BME280;34421;48.944;9.460;2023-04-05T02:55:58;98981.78;;;1.01;57.46
48622;BME280;34421;48.944;9.460;2023-04-05T02:58:24;98983.81;;;0.98;57.57
48622;BME280;34421;48.944;9.460;2023-04-05T03:00:49;98978.84;;;0.95;57.10
48622;BME280;34421;48.944;9.460;2023-04-05T03:03:20;98985.91;;;0.94;57.76
48622;BME280;34421;48.944;9.460;2023-04-05T03:05:45;98979.84;;;0.94;57.87
48622;BME280;34421;48.944;9.460;2023-04-05T03:08:12;98972.25;;;0.90;58.28
48622;BME280;34421;48.944;9.460;2023-04-05T03:10:42;98979.41;;;0.88;58.11
48622;BME280;34421;48.944;9.460;2023-04-05T03:13:09;98976.94;;;0.87;58.62
48622;BME280;34421;48.944;9.460;2023-04-05T03:15:34;98978.03;;;0.84;57.97
48622;BME280;34421;48.944;9.460;2023-04-05T03:18:00;98977.47;;;0.81;58.95
48622;BME280;34421;48.944;9.460;2023-04-05T03:20:25;98971.81;;;0.76;57.83
48622;BME280;34421;48.944;9.460;2023-04-05T03:22:50;98971.66;;;0.77;58.67
48622;BME280;34421;48.944;9.460;2023-04-05T03:25:16;98971.94;;;0.74;58.15
48622;BME280;34421;48.944;9.460;2023-04-05T03:27:41;98981.03;;;0.70;58.80
48622;BME280;34421;48.944;9.460;2023-04-05T03:30:07;98972.75;;;0.65;59.25
48622;BME280;34421;48.944;9.460;2023-04-05T03:32:32;98974.81;;;0.61;59.32
48622;BME280;34421;48.944;9.460;2023-04-05T03:34:57;98977.56;;;0.60;59.66
48622;BME280;34421;48.944;9.460;2023-04-05T03:37:22;98971.91;;;0.55;59.63
48622;BME280;34421;48.944;9.460;2023-04-05T03:39:48;98968.47;;;0.54;58.98
48622;BME280;34421;48.944;9.460;2023-04-05T03:42:13;98969.13;;;0.56;59.56
48622;BME280;34421;48.944;9.460;2023-04-05T03:44:40;98977.97;;;0.55;59.62
48622;BME280;34421;48.944;9.460;2023-04-05T03:47:05;98979.75;;;0.55;59.44
48622;BME280;34421;48.944;9.460;2023-04-05T03:49:30;98974.91;;;0.50;59.68
48622;BME280;34421;48.944;9.460;2023-04-05T03:51:55;98975.31;;;0.45;60.48
48622;BME280;34421;48.944;9.460;2023-04-05T03:54:20;98967.72;;;0.42;60.40
48622;BME280;34421;48.944;9.460;2023-04-05T03:56:46;98979.16;;;0.41;59.64
48622;BME280;34421;48.944;9.460;2023-04-05T03:59:11;98974.06;;;0.40;59.96
48622;BME280;34421;48.944;9.460;2023-04-05T04:01:37;98974.78;;;0.42;59.81
48622;BME280;34421;48.944;9.460;2023-04-05T04:04:02;98979.03;;;0.43;60.62
48622;BME280;34421;48.944;9.460;2023-04-05T04:06:29;98976.53;;;0.41;60.63
48622;BME280;34421;48.944;9.460;2023-04-05T04:08:54;98978.22;;;0.42;59.82
48622;BME280;34421;48.944;9.460;2023-04-05T04:11:21;98976.69;;;0.40;60.83
48622;BME280;34421;48.944;9.460;2023-04-05T04:13:46;98979.56;;;0.37;59.70
48622;BME280;34421;48.944;9.460;2023-04-05T04:16:11;98982.91;;;0.39;60.59
48622;BME280;34421;48.944;9.460;2023-04-05T04:18:36;98980.84;;;0.42;60.37
48622;BME280;34421;48.944;9.460;2023-04-05T04:21:02;98984.41;;;0.41;60.06
48622;BME280;34421;48.944;9.460;2023-04-05T04:23:30;98976.81;;;0.38;60.05
48622;BME280;34421;48.944;9.460;2023-04-05T04:25:56;98983.84;;;0.38;60.92
48622;BME280;34421;48.944;9.460;2023-04-05T04:28:21;98979.84;;;0.34;60.01
48622;BME280;34421;48.944;9.460;2023-04-05T04:30:49;98981.63;;;0.33;59.86
48622;BME280;34421;48.944;9.460;2023-04-05T04:33:14;98979.84;;;0.34;59.66
48622;BME280;34421;48.944;9.460;2023-04-05T04:35:41;98982.56;;;0.32;60.27
48622;BME280;34421;48.944;9.460;2023-04-05T04:38:10;98977.22;;;0.34;60.79
48622;BME280;34421;48.944;9.460;2023-04-05T04:40:42;98985.19;;;0.32;59.74
48622;BME280;34421;48.944;9.460;2023-04-05T04:43:11;98980.63;;;0.25;60.83
48622;BME280;34421;48.944;9.460;2023-04-05T04:45:43;98976.22;;;0.25;60.73
48622;BME280;34421;48.944;9.460;2023-04-05T04:48:11;98978.44;;;0.30;59.91
48622;BME280;34421;48.944;9.460;2023-04-05T04:50:38;98980.94;;;0.31;59.78
48622;BME280;34421;48.944;9.460;2023-04-05T04:53:03;98982.56;;;0.32;60.83
48622;BME280;34421;48.944;9.460;2023-04-05T04:55:28;98976.50;;;0.32;59.84
48622;BME280;34421;48.944;9.460;2023-04-05T04:57:54;98981.75;;;0.32;60.77
48622;BME280;34421;48.944;9.460;2023-04-05T05:00:20;98979.41;;;0.29;60.82
48622;BME280;34421;48.944;9.460;2023-04-05T05:02:46;98975.97;;;0.28;60.86
48622;BME280;34421;48.944;9.460;2023-04-05T05:05:11;98982.84;;;0.29;60.48
48622;BME280;34421;48.944;9.460;2023-04-05T05:07:37;98986.28;;;0.30;60.13
48622;BME280;34421;48.944;9.460;2023-04-05T05:10:03;98987.66;;;0.24;60.81
48622;BME280;34421;48.944;9.460;2023-04-05T05:12:28;98988.34;;;0.26;60.08
48622;BME280;34421;48.944;9.460;2023-04-05T05:14:55;98987.97;;;0.31;61.09
48622;BME280;34421;48.944;9.460;2023-04-05T05:17:20;98997.19;;;0.35;60.70
48622;BME280;34421;48.944;9.460;2023-04-05T05:19:47;98994.31;;;0.38;60.22
48622;BME280;34421;48.944;9.460;2023-04-05T05:22:12;98995.03;;;0.40;60.76
48622;BME280;34421;48.944;9.460;2023-04-05T05:24:37;98988.44;;;0.45;61.56
48622;BME280;34421;48.944;9.460;2023-04-05T05:27:03;98991.47;;;0.51;61.57
48622;BME280;34421;48.944;9.460;2023-04-05T05:29:28;98997.69;;;0.59;61.48
48622;BME280;34421;48.944;9.460;2023-04-05T05:31:53;98989.56;;;0.62;61.25
48622;BME280;34421;48.944;9.460;2023-04-05T05:34:19;98991.41;;;0.72;61.60
48622;BME280;34421;48.944;9.460;2023-04-05T05:36:45;98985.63;;;0.78;61.02
48622;BME280;34421;48.944;9.460;2023-04-05T05:39:10;98992.94;;;0.84;61.05
48622;BME280;34421;48.944;9.460;2023-04-05T05:41:36;98993.75;;;0.94;60.32
48622;BME280;34421;48.944;9.460;2023-04-05T05:44:01;98990.59;;;1.00;60.21
48622;BME280;34421;48.944;9.460;2023-04-05T05:46:26;98987.41;;;1.06;60.62
48622;BME280;34421;48.944;9.460;2023-04-05T05:48:51;98987.69;;;1.13;59.81
48622;BME280;34421;48.944;9.460;2023-04-05T05:51:16;98990.19;;;1.24;60.18
48622;BME280;34421;48.944;9.460;2023-04-05T05:53:42;98994.31;;;1.36;60.09
48622;BME280;34421;48.944;9.460;2023-04-05T05:56:08;98994.88;;;1.50;59.89
48622;BME280;34421;48.944;9.460;2023-04-05T05:58:33;98993.22;;;1.58;59.38
48622;BME280;34421;48.944;9.460;2023-04-05T06:00:58;98995.00;;;1.68;59.53
48622;BME280;34421;48.944;9.460;2023-04-05T06:03:24;98992.06;;;1.80;59.46
48622;BME280;34421;48.944;9.460;2023-04-05T06:05:56;98995.63;;;1.89;59.19
48622;BME280;34421;48.944;9.460;2023-04-05T06:08:22;98997.56;;;1.97;59.13
48622;BME280;34421;48.944;9.460;2023-04-05T06:10:48;98991.00;;;2.11;58.72
48622;BME280;34421;48.944;9.460;2023-04-05T06:13:13;98991.66;;;2.22;58.92
48622;BME280;34421;48.944;9.460;2023-04-05T06:15:39;98997.84;;;2.31;58.37
48622;BME280;34421;48.944;9.460;2023-04-05T06:18:04;99002.94;;;2.42;58.21
48622;BME280;34421;48.944;9.460;2023-04-05T06:20:29;99003.03;;;2.50;57.81
48622;BME280;34421;48.944;9.460;2023-04-05T06:22:54;99010.03;;;2.60;57.35
48622;BME280;34421;48.944;9.460;2023-04-05T06:25:20;98998.78;;;2.67;57.66
48622;BME280;34421;48.944;9.460;2023-04-05T06:27:45;99001.97;;;2.71;57.49
48622;BME280;34421;48.944;9.460;2023-04-05T06:30:10;99004.97;;;2.76;57.25
48622;BME280;34421;48.944;9.460;2023-04-05T06:32:36;98999.41;;;2.79;57.45
48622;BME280;34421;48.944;9.460;2023-04-05T06:35:01;98996.56;;;2.90;56.66
48622;BME280;34421;48.944;9.460;2023-04-05T06:37:29;99000.50;;;3.04;56.55
48622;BME280;34421;48.944;9.460;2023-04-05T06:39:54;99004.25;;;3.19;56.83
48622;BME280;34421;48.944;9.460;2023-04-05T06:42:20;98997.09;;;3.30;55.91
48622;BME280;34421;48.944;9.460;2023-04-05T06:44:45;98997.72;;;3.41;55.90
48622;BME280;34421;48.944;9.460;2023-04-05T06:47:10;99000.78;;;3.55;56.28
48622;BME280;34421;48.944;9.460;2023-04-05T06:49:35;98994.00;;;3.70;56.12
48622;BME280;34421;48.944;9.460;2023-04-05T06:52:01;98994.53;;;4.00;56.42
48622;BME280;34421;48.944;9.460;2023-04-05T06:54:27;98988.41;;;7.10;52.96
48622;BME280;34421;48.944;9.460;2023-04-05T06:56:52;98980.09;;;12.37;43.28
48622;BME280;34421;48.944;9.460;2023-04-05T06:59:17;98975.28;;;16.40;35.61
48622;BME280;34421;48.944;9.460;2023-04-05T07:01:42;98982.06;;;18.98;30.70
48622;BME280;34421;48.944;9.460;2023-04-05T07:04:07;98971.59;;;20.83;28.19
48622;BME280;34421;48.944;9.460;2023-04-05T07:06:33;98979.28;;;22.55;24.89
48622;BME280;34421;48.944;9.460;2023-04-05T07:08:59;98972.94;;;24.08;23.53
48622;BME280;34421;48.944;9.460;2023-04-05T07:11:25;98975.84;;;25.88;21.27
48622;BME280;34421;48.944;9.460;2023-04-05T07:13:51;98973.81;;;26.82;18.49
48622;BME280;34421;48.944;9.460;2023-04-05T07:16:16;98979.03;;;27.56;17.35
48622;BME280;34421;48.944;9.460;2023-04-05T07:18:43;98977.34;;;28.14;16.86
48622;BME280;34421;48.944;9.460;2023-04-05T07:21:08;98961.75;;;29.38;16.35
48622;BME280;34421;48.944;9.460;2023-04-05T07:23:33;98962.13;;;30.27;14.62
48622;BME280;34421;48.944;9.460;2023-04-05T07:26:01;98963.81;;;30.87;14.75
48622;BME280;34421;48.944;9.460;2023-04-05T07:28:32;98964.91;;;31.16;13.46
48622;BME280;34421;48.944;9.460;2023-04-05T07:30:59;98962.84;;;31.13;13.42
48622;BME280;34421;48.944;9.460;2023-04-05T07:33:24;98957.72;;;31.23;13.85
48622;BME280;34421;48.944;9.460;2023-04-05T07:35:54;98956.78;;;31.61;13.60
48622;BME280;34421;48.944;9.460;2023-04-05T07:38:20;98961.91;;;32.29;12.49
48622;BME280;34421;48.944;9.460;2023-04-05T07:40:49;98954.94;;;33.05;12.06
48622;BME280;34421;48.944;9.460;2023-04-05T07:43:15;98958.31;;;33.67;11.07
48622;BME280;34421;48.944;9.460;2023-04-05T07:45:40;98953.63;;;34.59;10.30
48622;BME280;34421;48.944;9.460;2023-04-05T07:48:05;98952.38;;;35.08;10.35
48622;BME280;34421;48.944;9.460;2023-04-05T07:50:30;98955.38;;;35.38;8.98
48622;BME280;34421;48.944;9.460;2023-04-05T07:52:56;98954.97;;;35.55;9.61
48622;BME280;34421;48.944;9.460;2023-04-05T07:55:21;98950.41;;;36.05;9.00
48622;BME280;34421;48.944;9.460;2023-04-05T07:57:46;98949.88;;;36.23;8.53
48622;BME280;34421;48.944;9.460;2023-04-05T08:00:11;98949.16;;;36.26;8.25
48622;BME280;34421;48.944;9.460;2023-04-05T08:02:37;98949.22;;;36.53;8.50
48622;BME280;34421;48.944;9.460;2023-04-05T08:05:02;98948.97;;;36.61;7.92
48622;BME280;34421;48.944;9.460;2023-04-05T08:07:28;98946.13;;;36.84;8.47
48622;BME280;34421;48.944;9.460;2023-04-05T08:09:53;98938.63;;;37.15;7.78
48622;BME280;34421;48.944;9.460;2023-04-05T08:12:21;98939.97;;;37.55;8.14
48622;BME280;34421;48.944;9.460;2023-04-05T08:14:46;98942.59;;;38.19;7.49
48622;BME280;34421;48.944;9.460;2023-04-05T08:17:11;98943.13;;;38.32;7.78
48622;BME280;34421;48.944;9.460;2023-04-05T08:19:38;98936.72;;;38.31;7.45
48622;BME280;34421;48.944;9.460;2023-04-05T08:22:03;98932.44;;;38.92;7.47
48622;BME280;34421;48.944;9.460;2023-04-05T08:24:29;98930.22;;;39.27;6.73
48622;BME280;34421;48.944;9.460;2023-04-05T08:26:54;98926.19;;;39.17;7.23
48622;BME280;34421;48.944;9.460;2023-04-05T08:29:20;98925.16;;;39.54;6.29
48622;BME280;34421;48.944;9.460;2023-04-05T08:31:45;98926.34;;;39.56;6.91
48622;BME280;34421;48.944;9.460;2023-04-05T08:34:10;98929.13;;;39.49;6.72
48622;BME280;34421;48.944;9.460;2023-04-05T08:36:36;98927.63;;;39.87;6.56
48622;BME280;34421;48.944;9.460;2023-04-05T08:39:01;98925.66;;;39.92;6.44
48622;BME280;34421;48.944;9.460;2023-04-05T08:41:28;98928.09;;;40.18;5.99
48622;BME280;34421;48.944;9.460;2023-04-05T08:44:01;98918.50;;;40.73;6.04
48622;BME280;34421;48.944;9.460;2023-04-05T08:46:32;98920.00;;;41.03;5.82
48622;BME280;34421;48.944;9.460;2023-04-05T08:48:58;98921.28;;;40.76;5.78
48622;BME280;34421;48.944;9.460;2023-04-05T08:51:23;98918.41;;;41.09;5.69
48622;BME280;34421;48.944;9.460;2023-04-05T08:53:50;98925.91;;;41.22;5.49
48622;BME280;34421;48.944;9.460;2023-04-05T08:56:18;98911.38;;;41.63;5.28
48622;BME280;34421;48.944;9.460;2023-04-05T08:58:46;98917.16;;;41.98;5.58
48622;BME280;34421;48.944;9.460;2023-04-05T09:01:13;98918.56;;;42.20;5.17
48622;BME280;34421;48.944;9.460;2023-04-05T09:03:39;98915.59;;;42.42;5.08
48622;BME280;34421;48.944;9.460;2023-04-05T09:06:05;98929.88;;;42.51;5.11
48622;BME280;34421;48.944;9.460;2023-04-05T09:08:32;98924.06;;;42.34;4.95
48622;BME280;34421;48.944;9.460;2023-04-05T09:10:57;98917.41;;;42.14;5.06
48622;BME280;34421;48.944;9.460;2023-04-05T09:13:23;98919.16;;;41.94;5.31
48622;BME280;34421;48.944;9.460;2023-04-05T09:15:48;98927.28;;;40.61;5.81
48622;BME280;34421;48.944;9.460;2023-04-05T09:18:13;98922.75;;;39.45;5.98
48622;BME280;34421;48.944;9.460;2023-04-05T09:20:38;98920.84;;;39.74;5.80
48622;BME280;34421;48.944;9.460;2023-04-05T09:23:03;98925.31;;;40.25;5.59
48622;BME280;34421;48.944;9.460;2023-04-05T09:25:36;98916.88;;;40.72;5.75
48622;BME280;34421;48.944;9.460;2023-04-05T09:28:04;98916.09;;;40.75;5.47
48622;BME280;34421;48.944;9.460;2023-04-05T09:30:29;98923.63;;;40.89;5.86
48622;BME280;34421;48.944;9.460;2023-04-05T09:32:55;98918.75;;;41.21;6.00
48622;BME280;34421;48.944;9.460;2023-04-05T09:35:21;98908.25;;;41.43;6.00
48622;BME280;34421;48.944;9.460;2023-04-05T09:37:50;98911.97;;;41.19;6.21
48622;BME280;34421;48.944;9.460;2023-04-05T09:40:17;98918.50;;;40.73;6.28
48622;BME280;34421;48.944;9.460;2023-04-05T09:42:43;98916.03;;;40.96;6.10
48622;BME280;34421;48.944;9.460;2023-04-05T09:45:09;98900.59;;;41.58;5.95
48622;BME280;34421;48.944;9.460;2023-04-05T09:47:35;98909.72;;;42.25;4.64
48622;BME280;34421;48.944;9.460;2023-04-05T09:50:01;98898.84;;;42.38;5.35
48622;BME280;34421;48.944;9.460;2023-04-05T09:52:29;98899.22;;;42.82;5.20
48622;BME280;34421;48.944;9.460;2023-04-05T09:54:56;98897.00;;;43.00;4.93
48622;BME280;34421;48.944;9.460;2023-04-05T09:57:22;98900.75;;;42.90;4.49
48622;BME280;34421;48.944;9.460;2023-04-05T09:59:48;98894.69;;;42.91;4.71
48622;BME280;34421;48.944;9.460;2023-04-05T10:02:14;98889.16;;;42.88;4.92
48622;BME280;34421;48.944;9.460;2023-04-05T10:04:46;98893.34;;;42.72;4.63
48622;BME280;34421;48.944;9.460;2023-04-05T10:07:13;98886.09;;;42.71;4.69
48622;BME280;34421;48.944;9.460;2023-04-05T10:09:38;98891.06;;;42.94;4.53
48622;BME280;34421;48.944;9.460;2023-04-05T10:12:05;98884.84;;;43.10;4.50
48622;BME280;34421;48.944;9.460;2023-04-05T10:14:30;98884.22;;;42.99;4.75
48622;BME280;34421;48.944;9.460;2023-04-05T10:19:40;98870.78;;;42.87;5.10
48622;BME280;34421;48.944;9.460;2023-04-05T10:22:22;98867.13;;;42.90;5.64
48622;BME280;34421;48.944;9.460;2023-04-05T10:24:51;98868.56;;;42.67;5.54
48622;BME280;34421;48.944;9.460;2023-04-05T10:27:32;98874.84;;;41.92;5.77
48622;BME280;34421;48.944;9.460;2023-04-05T10:30:03;98872.53;;;41.80;5.45
48622;BME280;34421;48.944;9.460;2023-04-05T10:32:33;98871.03;;;41.68;4.93
48622;BME280;34421;48.944;9.460;2023-04-05T10:35:14;98861.34;;;41.76;4.99
48622;BME280;34421;48.944;9.460;2023-04-05T10:40:12;98859.00;;;41.75;4.84
48622;BME280;34421;48.944;9.460;2023-04-05T10:42:41;98863.09;;;41.59;4.86
48622;BME280;34421;48.944;9.460;2023-04-05T10:45:11;98867.13;;;41.51;5.61
48622;BME280;34421;48.944;9.460;2023-04-05T10:47:37;98863.31;;;41.16;5.02
48622;BME280;34421;48.944;9.460;2023-04-05T10:50:07;98874.97;;;40.86;5.03
48622;BME280;34421;48.944;9.460;2023-04-05T10:52:33;98871.09;;;40.26;5.16
48622;BME280;34421;48.944;9.460;2023-04-05T10:54:58;98865.91;;;39.89;6.07
48622;BME280;34421;48.944;9.460;2023-04-05T10:57:24;98864.47;;;38.97;6.72
48622;BME280;34421;48.944;9.460;2023-04-05T10:59:50;98879.22;;;36.10;7.39
48622;BME280;34421;48.944;9.460;2023-04-05T11:02:15;98880.53;;;34.09;8.21
48622;BME280;34421;48.944;9.460;2023-04-05T11:04:42;98886.78;;;32.94;8.09
48622;BME280;34421;48.944;9.460;2023-04-05T11:07:16;98885.03;;;31.12;8.32
48622;BME280;34421;48.944;9.460;2023-04-05T11:09:55;98884.94;;;29.55;9.59
48622;BME280;34421;48.944;9.460;2023-04-05T11:18:00;98868.56;;;31.45;9.48
48622;BME280;34421;48.944;9.460;2023-04-05T11:20:25;98854.94;;;32.56;8.06
48622;BME280;34421;48.944;9.460;2023-04-05T11:22:52;98858.75;;;32.91;8.79
48622;BME280;34421;48.944;9.460;2023-04-05T11:25:21;98853.44;;;33.11;8.73
48622;BME280;34421;48.944;9.460;2023-04-05T11:27:58;98859.59;;;31.82;9.00
48622;BME280;34421;48.944;9.460;2023-04-05T11:33:08;98853.91;;;27.39;10.84
48622;BME280;34421;48.944;9.460;2023-04-05T11:35:33;98859.97;;;25.67;12.00
48622;BME280;34421;48.944;9.460;2023-04-05T11:40:30;98859.44;;;22.87;13.65
48622;BME280;34421;48.944;9.460;2023-04-05T11:42:57;98868.31;;;21.37;14.82
48622;BME280;34421;48.944;9.460;2023-04-05T11:45:23;98855.50;;;20.71;15.63
48622;BME280;34421;48.944;9.460;2023-04-05T11:47:48;98857.22;;;20.30;15.84
48622;BME280;34421;48.944;9.460;2023-04-05T11:50:14;98856.78;;;19.58;16.44
48622;BME280;34421;48.944;9.460;2023-04-05T11:52:40;98857.91;;;19.25;16.44
48622;BME280;34421;48.944;9.460;2023-04-05T11:55:05;98856.78;;;18.94;16.46
48622;BME280;34421;48.944;9.460;2023-04-05T11:57:30;98862.19;;;18.44;17.48
48622;BME280;34421;48.944;9.460;2023-04-05T11:59:57;98851.59;;;17.94;17.67
48622;BME280;34421;48.944;9.460;2023-04-05T12:02:22;98857.66;;;17.67;18.17
48622;BME280;34421;48.944;9.460;2023-04-05T12:04:54;98849.09;;;17.20;18.69
48622;BME280;34421;48.944;9.460;2023-04-05T12:07:23;98851.25;;;16.60;19.10
48622;BME280;34421;48.944;9.460;2023-04-05T12:09:56;98853.44;;;16.35;18.52
48622;BME280;34421;48.944;9.460;2023-04-05T12:12:21;98841.78;;;16.17;19.43
48622;BME280;34421;48.944;9.460;2023-04-05T12:14:46;98837.06;;;15.96;19.89
48622;BME280;34421;48.944;9.460;2023-04-05T12:17:11;98828.63;;;16.04;20.03
48622;BME280;34421;48.944;9.460;2023-04-05T12:19:36;98832.59;;;16.02;20.24
48622;BME280;34421;48.944;9.460;2023-04-05T12:22:02;98823.50;;;15.91;20.42
48622;BME280;34421;48.944;9.460;2023-04-05T12:24:27;98830.75;;;15.90;20.71
48622;BME280;34421;48.944;9.460;2023-04-05T12:26:53;98828.66;;;15.57;21.19
48622;BME280;34421;48.944;9.460;2023-04-05T12:29:18;98817.56;;;15.30;20.74
48622;BME280;34421;48.944;9.460;2023-04-05T12:31:44;98830.81;;;15.01;21.71
48622;BME280;34421;48.944;9.460;2023-04-05T12:34:10;98825.03;;;14.74;22.07
48622;BME280;34421;48.944;9.460;2023-04-05T12:36:36;98819.66;;;14.44;21.71
48622;BME280;34421;48.944;9.460;2023-04-05T12:39:06;98825.00;;;14.14;22.37
48622;BME280;34421;48.944;9.460;2023-04-05T12:41:32;98811.75;;;13.82;22.81
48622;BME280;34421;48.944;9.460;2023-04-05T12:43:58;98821.38;;;13.72;22.79
48622;BME280;34421;48.944;9.460;2023-04-05T12:49:04;98811.75;;;13.82;22.87
48622;BME280;34421;48.944;9.460;2023-04-05T12:51:30;98802.53;;;13.97;22.54
48622;BME280;34421;48.944;9.460;2023-04-05T12:53:56;98800.38;;;14.05;22.75
48622;BME280;34421;48.944;9.460;2023-04-05T12:56:21;98799.19;;;14.20;23.66
48622;BME280;34421;48.944;9.460;2023-04-05T12:58:47;98803.69;;;14.38;23.10
48622;BME280;34421;48.944;9.460;2023-04-05T13:01:14;98797.06;;;14.40;22.74
48622;BME280;34421;48.944;9.460;2023-04-05T13:03:42;98785.88;;;14.43;22.45
48622;BME280;34421;48.944;9.460;2023-04-05T13:06:07;98787.00;;;14.54;22.58
48622;BME280;34421;48.944;9.460;2023-04-05T13:08:32;98784.09;;;14.55;22.48
48622;BME280;34421;48.944;9.460;2023-04-05T13:10:58;98782.22;;;14.56;22.38
48622;BME280;34421;48.944;9.460;2023-04-05T13:13:23;98777.94;;;14.55;22.57
48622;BME280;34421;48.944;9.460;2023-04-05T13:15:48;98785.78;;;14.50;22.31
48622;BME280;34421;48.944;9.460;2023-04-05T13:18:13;98772.03;;;14.46;22.18
48622;BME280;34421;48.944;9.460;2023-04-05T13:20:43;98773.47;;;14.30;22.46
48622;BME280;34421;48.944;9.460;2023-04-05T13:23:08;98768.47;;;14.22;22.43
48622;BME280;34421;48.944;9.460;2023-04-05T13:25:36;98768.81;;;14.26;22.45
48622;BME280;34421;48.944;9.460;2023-04-05T13:28:01;98772.00;;;14.34;23.03
48622;BME280;34421;48.944;9.460;2023-04-05T13:30:26;98770.91;;;14.24;22.68
48622;BME280;34421;48.944;9.460;2023-04-05T13:32:52;98761.94;;;14.30;22.16